Omskiy-141 — UGZK — position and weather

sailwx.info

Track history (hours):
 
Tides and Currents Weather Stations Pressure Air Temp Water Temp Dewpoint Dewpoint Depression Visibility Wind Speed Wind Dir Waves Ship Positions

Omskiy-141

Last reported at 2017-Jan-20 10:08 UTC. Time now 2017-Jan-21 21:32 UTC.
Position N 59°38' E 023°14'.

Length 108 m; draft 3.4 m.

Type: Cargo ship. MMSI: 273310600.

Date/timePositionNaut miles runAvg speedWind from/ knotsBaromVisibWave heightAir tempDewpointWater temp
2017-Jan-20 10:08N 59°38' E 023°14'6 7.6
2017-Jan-20 09:22N 59°40' E 023°25'6 7.1
2017-Jan-20 08:33N 59°41' E 023°36'7 7.3
2017-Jan-20 07:33N 59°43' E 023°49'77 6.9
2017-Jan-19 20:21N 59°60' E 026°19'5 5.7
2017-Jan-19 19:33N 60°01' E 026°28'5 5.1
2017-Jan-19 18:33N 60°01' E 026°38'5 4.2
2017-Jan-19 17:25N 60°01' E 026°48'36 4.9
2017-Jan-19 10:06N 60°11' E 027°57'5 6.5
2017-Jan-19 09:21N 60°09' E 028°07'5 6.9
2017-Jan-19 08:33N 60°08' E 028°17'7 6.9
2017-Jan-19 07:33N 60°04' E 028°28'7 7.1
2017-Jan-19 06:33N 60°02' E 028°42'29 3.2
2017-Jan-18 21:33N 59°60' E 029°39'7 7.2
2017-Jan-18 20:33N 59°57' E 029°52'8 7.8
2017-Jan-18 19:33N 59°54' E 030°07'3 2.6
2017-Jan-18 18:33N 59°53' E 030°11'0 0.3
2017-Jan-18 17:32N 59°53' E 030°11'0 0.0
2017-Jan-18 16:32N 59°53' E 030°11'0 0.0
2017-Jan-18 15:32N 59°53' E 030°11'0 0.0
2017-Jan-18 14:32N 59°53' E 030°11'0 0.0
2017-Jan-18 13:23N 59°53' E 030°11'0 0.0
2017-Jan-18 12:32N 59°53' E 030°11'0 0.0
2017-Jan-18 11:31N 59°53' E 030°11'0 0.0
2017-Jan-18 10:34N 59°53' E 030°11'0 0.0
2017-Jan-18 09:31N 59°53' E 030°11'0 0.0
2017-Jan-18 08:31N 59°53' E 030°11'0 0.0
2017-Jan-18 07:31N 59°53' E 030°11'0 0.0
2017-Jan-18 06:28N 59°53' E 030°11'0 0.0
2017-Jan-18 05:31N 59°53' E 030°11'0 0.0
2017-Jan-18 04:31N 59°53' E 030°11'0 0.0
2017-Jan-18 03:25N 59°53' E 030°11'0 0.0
2017-Jan-18 02:31N 59°53' E 030°11'0 0.0
2017-Jan-18 01:31N 59°53' E 030°11'0 0.0
2017-Jan-18 00:31N 59°53' E 030°11'0 0.0
2017-Jan-17 23:25N 59°53' E 030°11'0 0.0
2017-Jan-17 22:28N 59°53' E 030°11'0 0.0
2017-Jan-17 21:31N 59°53' E 030°11'0 0.0
2017-Jan-17 20:31N 59°53' E 030°11'0 0.0
2017-Jan-17 19:31N 59°53' E 030°11'0 0.0
2017-Jan-17 18:28N 59°53' E 030°11'0 0.0
2017-Jan-17 17:31N 59°53' E 030°11'0 0.0
2017-Jan-17 16:31N 59°53' E 030°11'0 0.0
2017-Jan-17 15:31N 59°53' E 030°11'0 0.4
2017-Jan-17 14:32N 59°52' E 030°12'0 0.0
2017-Jan-17 13:29N 59°52' E 030°12'0 0.0
2017-Jan-17 12:29N 59°52' E 030°12'0 0.0
2017-Jan-17 11:23N 59°52' E 030°12'0 0.0
2017-Jan-17 10:32N 59°52' E 030°12'0 0.0
2017-Jan-17 09:32N 59°52' E 030°12'0 0.0
2017-Jan-17 08:32N 59°52' E 030°12'1 1.4
2017-Jan-17 07:34N 59°53' E 030°10'7 7.4
2017-Jan-17 06:33N 59°56' E 029°56'26 0.7
2017-Jan-15 18:20N 60°01' E 029°06'3 3.4
2017-Jan-15 17:32N 60°00' E 029°00'6 6.0
2017-Jan-15 16:34N 60°01' E 028°49'6 6.1
2017-Jan-15 15:34N 60°02' E 028°37'8 8.2
2017-Jan-15 14:34N 60°04' E 028°21'  
2017-Jan-13 04:33N 54°59' E 019°10'8 8.2
2017-Jan-13 03:34N 54°51' E 019°05'8 8.5
2017-Jan-13 02:33N 54°43' E 019°00'9 8.9
2017-Jan-13 01:34N 54°35' E 018°53'9 8.7
2017-Jan-13 00:33N 54°29' E 018°44'3 3.3
2017-Jan-12 23:32N 54°27' E 018°39'0 0.0
2017-Jan-12 22:33N 54°27' E 018°39'0 0.0
2017-Jan-12 21:33N 54°27' E 018°39'0 0.0
2017-Jan-12 20:33N 54°27' E 018°39'0 0.0
2017-Jan-12 19:33N 54°27' E 018°39'0 0.0
2017-Jan-12 18:33N 54°27' E 018°39'0 0.0
2017-Jan-12 17:33N 54°27' E 018°39'0 0.0
2017-Jan-12 16:33N 54°27' E 018°39'0 0.0
2017-Jan-12 15:33N 54°27' E 018°39'0 0.0
2017-Jan-12 14:33N 54°27' E 018°39'0 0.0
2017-Jan-12 13:30N 54°27' E 018°39'0 0.0
2017-Jan-12 12:33N 54°27' E 018°39'0 0.0
2017-Jan-12 11:33N 54°27' E 018°39'0 0.0
2017-Jan-12 10:33N 54°27' E 018°39'0 0.0
2017-Jan-12 09:33N 54°27' E 018°39'0 0.0
2017-Jan-12 08:33N 54°27' E 018°39'0 0.0
2017-Jan-12 07:33N 54°27' E 018°39'0 0.0
2017-Jan-12 06:33N 54°27' E 018°39'0 0.1
2017-Jan-12 05:33N 54°27' E 018°39'0 0.0
2017-Jan-12 04:33N 54°27' E 018°39'0 0.0
2017-Jan-12 03:33N 54°27' E 018°39'0 0.0
2017-Jan-12 02:33N 54°27' E 018°39'0 0.0
2017-Jan-12 01:33N 54°27' E 018°39'0 0.0
2017-Jan-12 00:33N 54°27' E 018°39'0 0.0
2017-Jan-11 23:33N 54°27' E 018°39'0 0.0
2017-Jan-11 22:33N 54°27' E 018°39'0 0.0
2017-Jan-11 21:33N 54°27' E 018°39'0 0.0
2017-Jan-11 20:33N 54°27' E 018°39'0 0.0
2017-Jan-11 19:33N 54°27' E 018°39'0 0.0
2017-Jan-11 18:33N 54°27' E 018°39'0 0.0
2017-Jan-11 17:33N 54°27' E 018°39'0 0.0
2017-Jan-11 16:33N 54°27' E 018°39'0 0.0
2017-Jan-11 15:33N 54°27' E 018°39'0 0.0
2017-Jan-11 14:33N 54°27' E 018°39'0 0.0
2017-Jan-11 13:33N 54°27' E 018°39'0 0.0
2017-Jan-11 12:33N 54°27' E 018°39'0 0.0
2017-Jan-11 11:33N 54°27' E 018°39'0 0.0
2017-Jan-11 10:33N 54°27' E 018°39'0 0.0
2017-Jan-11 09:33N 54°27' E 018°39'0 0.0
2017-Jan-11 08:33N 54°27' E 018°39'0 0.0
2017-Jan-11 07:33N 54°27' E 018°39'0 0.0
2017-Jan-11 06:33N 54°27' E 018°39'0 0.0
2017-Jan-11 05:33N 54°27' E 018°39'0 0.0
2017-Jan-11 04:33N 54°27' E 018°39'0 0.0
2017-Jan-11 03:33N 54°27' E 018°39'0 0.0
2017-Jan-11 02:33N 54°27' E 018°39'0 0.0
2017-Jan-11 01:33N 54°27' E 018°39'0 0.0
2017-Jan-11 00:33N 54°27' E 018°39'0 0.0
2017-Jan-10 23:33N 54°27' E 018°39'0 0.0
2017-Jan-10 22:33N 54°27' E 018°39'0 0.0
2017-Jan-10 21:33N 54°27' E 018°39'0 0.0
2017-Jan-10 20:33N 54°27' E 018°39'0 0.0
2017-Jan-10 19:33N 54°27' E 018°39'4 3.9
2017-Jan-10 18:33N 54°23' E 018°40'0 0.1
2017-Jan-10 17:33N 54°23' E 018°40'0 0.0
2017-Jan-10 16:33N 54°23' E 018°40'0 0.0
2017-Jan-10 15:33N 54°23' E 018°40'0 0.0
2017-Jan-10 14:33N 54°23' E 018°40'0 0.0
2017-Jan-10 13:33N 54°23' E 018°40'0 0.0
2017-Jan-10 12:33N 54°23' E 018°40'0 0.0
2017-Jan-10 11:33N 54°23' E 018°40'0 0.0
2017-Jan-10 10:33N 54°23' E 018°40'  
Track history (hours):
 
Tides and Currents Weather Stations Pressure Air Temp Water Temp Dewpoint Dewpoint Depression Visibility Wind Speed Wind Dir Waves Ship Positions

Omskiy-141

Last reported at 2017-Jan-20 10:08 UTC. Time now 2017-Jan-21 21:32 UTC.
Position N 59°38' E 023°14'.

Length 108 m; draft 3.4 m.

Type: Cargo ship. MMSI: 273310600.

Date/timePositionNaut miles runAvg speedWind from/ knotsBaromVisibWave heightAir tempDewpointWater temp
2017-Jan-20 10:08N 59°38' E 023°14'6 7.6
2017-Jan-20 09:22N 59°40' E 023°25'6 7.1
2017-Jan-20 08:33N 59°41' E 023°36'7 7.3
2017-Jan-20 07:33N 59°43' E 023°49'77 6.9
2017-Jan-19 20:21N 59°60' E 026°19'5 5.7
2017-Jan-19 19:33N 60°01' E 026°28'5 5.1
2017-Jan-19 18:33N 60°01' E 026°38'5 4.2
2017-Jan-19 17:25N 60°01' E 026°48'36 4.9
2017-Jan-19 10:06N 60°11' E 027°57'5 6.5
2017-Jan-19 09:21N 60°09' E 028°07'5 6.9
2017-Jan-19 08:33N 60°08' E 028°17'7 6.9
2017-Jan-19 07:33N 60°04' E 028°28'7 7.1
2017-Jan-19 06:33N 60°02' E 028°42'29 3.2
2017-Jan-18 21:33N 59°60' E 029°39'7 7.2
2017-Jan-18 20:33N 59°57' E 029°52'8 7.8
2017-Jan-18 19:33N 59°54' E 030°07'3 2.6
2017-Jan-18 18:33N 59°53' E 030°11'0 0.3
2017-Jan-18 17:32N 59°53' E 030°11'0 0.0
2017-Jan-18 16:32N 59°53' E 030°11'0 0.0
2017-Jan-18 15:32N 59°53' E 030°11'0 0.0
2017-Jan-18 14:32N 59°53' E 030°11'0 0.0
2017-Jan-18 13:23N 59°53' E 030°11'0 0.0
2017-Jan-18 12:32N 59°53' E 030°11'0 0.0
2017-Jan-18 11:31N 59°53' E 030°11'0 0.0
2017-Jan-18 10:34N 59°53' E 030°11'0 0.0
2017-Jan-18 09:31N 59°53' E 030°11'0 0.0
2017-Jan-18 08:31N 59°53' E 030°11'0 0.0
2017-Jan-18 07:31N 59°53' E 030°11'0 0.0
2017-Jan-18 06:28N 59°53' E 030°11'0 0.0
2017-Jan-18 05:31N 59°53' E 030°11'0 0.0
2017-Jan-18 04:31N 59°53' E 030°11'0 0.0
2017-Jan-18 03:25N 59°53' E 030°11'0 0.0
2017-Jan-18 02:31N 59°53' E 030°11'0 0.0
2017-Jan-18 01:31N 59°53' E 030°11'0 0.0
2017-Jan-18 00:31N 59°53' E 030°11'0 0.0
2017-Jan-17 23:25N 59°53' E 030°11'0 0.0
2017-Jan-17 22:28N 59°53' E 030°11'0 0.0
2017-Jan-17 21:31N 59°53' E 030°11'0 0.0
2017-Jan-17 20:31N 59°53' E 030°11'0 0.0
2017-Jan-17 19:31N 59°53' E 030°11'0 0.0
2017-Jan-17 18:28N 59°53' E 030°11'0 0.0
2017-Jan-17 17:31N 59°53' E 030°11'0 0.0
2017-Jan-17 16:31N 59°53' E 030°11'0 0.0
2017-Jan-17 15:31N 59°53' E 030°11'0 0.4
2017-Jan-17 14:32N 59°52' E 030°12'0 0.0
2017-Jan-17 13:29N 59°52' E 030°12'0 0.0
2017-Jan-17 12:29N 59°52' E 030°12'0 0.0
2017-Jan-17 11:23N 59°52' E 030°12'0 0.0
2017-Jan-17 10:32N 59°52' E 030°12'0 0.0
2017-Jan-17 09:32N 59°52' E 030°12'0 0.0
2017-Jan-17 08:32N 59°52' E 030°12'1 1.4
2017-Jan-17 07:34N 59°53' E 030°10'7 7.4
2017-Jan-17 06:33N 59°56' E 029°56'26 0.7
2017-Jan-15 18:20N 60°01' E 029°06'3 3.4
2017-Jan-15 17:32N 60°00' E 029°00'6 6.0
2017-Jan-15 16:34N 60°01' E 028°49'6 6.1
2017-Jan-15 15:34N 60°02' E 028°37'8 8.2
2017-Jan-15 14:34N 60°04' E 028°21'  
2017-Jan-13 04:33N 54°59' E 019°10'8 8.2
2017-Jan-13 03:34N 54°51' E 019°05'8 8.5
2017-Jan-13 02:33N 54°43' E 019°00'9 8.9
2017-Jan-13 01:34N 54°35' E 018°53'9 8.7
2017-Jan-13 00:33N 54°29' E 018°44'3 3.3
2017-Jan-12 23:32N 54°27' E 018°39'0 0.0
2017-Jan-12 22:33N 54°27' E 018°39'0 0.0
2017-Jan-12 21:33N 54°27' E 018°39'0 0.0
2017-Jan-12 20:33N 54°27' E 018°39'0 0.0
2017-Jan-12 19:33N 54°27' E 018°39'0 0.0
2017-Jan-12 18:33N 54°27' E 018°39'0 0.0
2017-Jan-12 17:33N 54°27' E 018°39'0 0.0
2017-Jan-12 16:33N 54°27' E 018°39'0 0.0
2017-Jan-12 15:33N 54°27' E 018°39'0 0.0
2017-Jan-12 14:33N 54°27' E 018°39'0 0.0
2017-Jan-12 13:30N 54°27' E 018°39'0 0.0
2017-Jan-12 12:33N 54°27' E 018°39'0 0.0
2017-Jan-12 11:33N 54°27' E 018°39'0 0.0
2017-Jan-12 10:33N 54°27' E 018°39'0 0.0
2017-Jan-12 09:33N 54°27' E 018°39'0 0.0
2017-Jan-12 08:33N 54°27' E 018°39'0 0.0
2017-Jan-12 07:33N 54°27' E 018°39'0 0.0
2017-Jan-12 06:33N 54°27' E 018°39'0 0.1
2017-Jan-12 05:33N 54°27' E 018°39'0 0.0
2017-Jan-12 04:33N 54°27' E 018°39'0 0.0
2017-Jan-12 03:33N 54°27' E 018°39'0 0.0
2017-Jan-12 02:33N 54°27' E 018°39'0 0.0
2017-Jan-12 01:33N 54°27' E 018°39'0 0.0
2017-Jan-12 00:33N 54°27' E 018°39'0 0.0
2017-Jan-11 23:33N 54°27' E 018°39'0 0.0
2017-Jan-11 22:33N 54°27' E 018°39'0 0.0
2017-Jan-11 21:33N 54°27' E 018°39'0 0.0
2017-Jan-11 20:33N 54°27' E 018°39'0 0.0
2017-Jan-11 19:33N 54°27' E 018°39'0 0.0
2017-Jan-11 18:33N 54°27' E 018°39'0 0.0
2017-Jan-11 17:33N 54°27' E 018°39'0 0.0
2017-Jan-11 16:33N 54°27' E 018°39'0 0.0
2017-Jan-11 15:33N 54°27' E 018°39'0 0.0
2017-Jan-11 14:33N 54°27' E 018°39'0 0.0
2017-Jan-11 13:33N 54°27' E 018°39'0 0.0
2017-Jan-11 12:33N 54°27' E 018°39'0 0.0
2017-Jan-11 11:33N 54°27' E 018°39'0 0.0
2017-Jan-11 10:33N 54°27' E 018°39'0 0.0
2017-Jan-11 09:33N 54°27' E 018°39'0 0.0
2017-Jan-11 08:33N 54°27' E 018°39'0 0.0
2017-Jan-11 07:33N 54°27' E 018°39'0 0.0
2017-Jan-11 06:33N 54°27' E 018°39'0 0.0
2017-Jan-11 05:33N 54°27' E 018°39'0 0.0
2017-Jan-11 04:33N 54°27' E 018°39'0 0.0
2017-Jan-11 03:33N 54°27' E 018°39'0 0.0
2017-Jan-11 02:33N 54°27' E 018°39'0 0.0
2017-Jan-11 01:33N 54°27' E 018°39'0 0.0
2017-Jan-11 00:33N 54°27' E 018°39'0 0.0
2017-Jan-10 23:33N 54°27' E 018°39'0 0.0
2017-Jan-10 22:33N 54°27' E 018°39'0 0.0
2017-Jan-10 21:33N 54°27' E 018°39'0 0.0
2017-Jan-10 20:33N 54°27' E 018°39'0 0.0
2017-Jan-10 19:33N 54°27' E 018°39'4 3.9
2017-Jan-10 18:33N 54°23' E 018°40'0 0.1
2017-Jan-10 17:33N 54°23' E 018°40'0 0.0
2017-Jan-10 16:33N 54°23' E 018°40'0 0.0
2017-Jan-10 15:33N 54°23' E 018°40'0 0.0
2017-Jan-10 14:33N 54°23' E 018°40'0 0.0
2017-Jan-10 13:33N 54°23' E 018°40'0 0.0
2017-Jan-10 12:33N 54°23' E 018°40'0 0.0
2017-Jan-10 11:33N 54°23' E 018°40'0 0.0
2017-Jan-10 10:33N 54°23' E 018°40'  

Dump ship's entire track history